Time;durP1;ratioP1;P1;durP2;ratioP2;P2;SDS_P1;SDS_P2;PMS_P1;PMS_P2;Temp;Humidity;BMP_temperature;BMP_pressure;BME280_temperature;BME280_humidity;BME280_pressure;Samples;Min_cycle;Max_cycle;Signal;HPM_P1;HPM_P2
2023/11/03 00:00:18;;;;;;;0.00;0.00;;;;;;;7.47;100.00;97419.00;5052919;28;20089;-40
2023/11/03 00:02:43;;;;;;;0.00;0.00;;;;;;;7.41;100.00;97412.78;5053160;28;20037;-42
2023/11/03 00:05:11;;;;;;;0.00;0.00;;;;;;;7.41;100.00;97417.31;5071423;28;20437;-41
2023/11/03 00:07:37;;;;;;;;;;;;;;;7.42;100.00;97426.94;5076283;28;20382;-40
2023/11/03 00:10:06;;;;;;;0.00;0.00;;;;;;;7.40;100.00;97442.47;5074892;28;19995;-40
2023/11/03 00:12:33;;;;;;;0.00;0.00;;;;;;;7.42;100.00;97445.69;5068562;28;20033;-41
2023/11/03 00:14:59;;;;;;;0.00;0.00;;;;;;;7.36;100.00;97449.34;5052943;28;20029;-39
2023/11/03 00:17:24;;;;;;;0.00;0.00;;;;;;;7.37;100.00;97440.25;5091740;28;20434;-40
2023/11/03 00:19:50;;;;;;;0.00;0.00;;;;;;;7.36;100.00;97450.16;5074539;28;20561;-40
2023/11/03 00:22:15;;;;;;;0.00;0.00;;;;;;;7.38;100.00;97444.56;5072159;28;20107;-40
2023/11/03 00:24:41;;;;;;;0.00;0.00;;;;;;;7.40;100.00;97447.81;5071522;28;20032;-42
2023/11/03 00:27:06;;;;;;;0.00;0.00;;;;;;;7.44;100.00;97456.94;5073266;28;20475;-42
2023/11/03 00:29:31;;;;;;;0.00;0.00;;;;;;;7.52;100.00;97445.84;5079088;28;20021;-42
2023/11/03 00:31:57;;;;;;;0.00;0.00;;;;;;;7.57;100.00;97451.25;5075917;28;20027;-44
2023/11/03 00:34:22;;;;;;;0.00;0.00;;;;;;;7.62;100.00;97461.25;5074399;28;20421;-43
2023/11/03 00:36:48;;;;;;;0.00;0.00;;;;;;;7.62;100.00;97461.25;5052714;28;20029;-44
2023/11/03 00:39:18;;;;;;;0.00;0.00;;;;;;;7.67;100.00;97451.41;5050905;28;20029;-42
2023/11/03 00:41:46;;;;;;;0.00;0.00;;;;;;;7.76;100.00;97469.72;5051614;28;20391;-44
2023/11/03 00:44:12;;;;;;;0.00;0.00;;;;;;;7.80;100.00;97465.50;5054091;28;20032;-44
2023/11/03 00:46:38;;;;;;;0.00;0.00;;;;;;;7.86;100.00;97461.84;5062544;28;20017;-41
2023/11/03 00:49:07;;;;;;;0.00;0.00;;;;;;;7.89;100.00;97464.81;5063772;28;20078;-42
2023/11/03 00:51:33;;;;;;;0.00;0.00;;;;;;;7.94;100.00;97488.19;5055154;28;20082;-42
2023/11/03 00:53:59;;;;;;;0.00;0.00;;;;;;;7.96;100.00;97488.75;5056728;28;20037;-43
2023/11/03 00:56:24;;;;;;;0.00;0.00;;;;;;;7.98;100.00;97497.34;5051758;28;20024;-44
2023/11/03 00:58:50;;;;;;;0.00;0.00;;;;;;;8.01;100.00;97491.50;5063575;28;20032;-43
2023/11/03 01:01:15;;;;;;;0.00;0.00;;;;;;;8.02;100.00;97503.81;5060491;28;20060;-44
2023/11/03 01:03:41;;;;;;;0.00;0.00;;;;;;;8.07;100.00;97503.88;5070179;28;20435;-44
2023/11/03 01:06:10;;;;;;;0.00;0.00;;;;;;;8.12;100.00;97503.97;5071629;28;20489;-46
2023/11/03 01:08:36;;;;;;;0.00;0.00;;;;;;;8.21;100.00;97514.25;5065543;28;20071;-44
2023/11/03 01:11:02;;;;;;;0.00;0.00;;;;;;;8.29;100.00;97520.00;5059403;28;20025;-46
2023/11/03 01:13:28;;;;;;;0.00;0.00;;;;;;;8.31;100.00;97533.94;5061053;28;20402;-43
2023/11/03 01:15:54;;;;;;;0.00;0.00;;;;;;;8.35;100.00;97536.94;5070654;28;20024;-43
2023/11/03 01:18:19;;;;;;;0.00;0.00;;;;;;;8.38;100.00;97538.31;5069843;28;20029;-44
2023/11/03 01:20:48;;;;;;;0.00;0.00;;;;;;;8.38;100.00;97543.69;5068347;28;20506;-47
2023/11/03 01:23:17;;;;;;;0.00;0.00;;;;;;;8.36;100.00;97543.91;5051198;28;20120;-44
2023/11/03 01:25:45;;;;;;;0.00;0.00;;;;;;;8.35;100.00;97550.34;5070800;28;20032;-44
2023/11/03 01:28:11;;;;;;;0.00;0.00;;;;;;;8.38;100.00;97533.75;5069141;28;20032;-45
2023/11/03 01:30:39;;;;;;;0.00;0.00;;;;;;;8.46;100.00;97532.56;5063288;28;20425;-42
2023/11/03 01:33:05;;;;;;;0.00;0.00;;;;;;;8.50;100.00;97537.13;5070822;28;20056;-43
2023/11/03 01:35:31;;;;;;;0.00;0.00;;;;;;;8.53;100.00;97538.50;5070501;28;20421;-42
2023/11/03 01:37:56;;;;;;;0.00;0.00;;;;;;;8.55;100.00;97534.53;5071069;28;20021;-44
2023/11/03 01:40:22;;;;;;;0.00;0.00;;;;;;;8.57;100.00;97540.44;5059715;28;20063;-43
2023/11/03 01:42:48;;;;;;;0.00;0.00;;;;;;;8.61;100.00;97553.34;5068821;28;20025;-46
2023/11/03 01:45:14;;;;;;;0.00;0.00;;;;;;;8.68;100.00;97543.25;5066004;28;20052;-45
2023/11/03 01:47:40;;;;;;;0.00;0.00;;;;;;;8.72;100.00;97549.75;5056936;28;20103;-45
2023/11/03 01:50:07;;;;;;;0.00;0.00;;;;;;;8.72;100.00;97544.38;5060204;28;20024;-44
2023/11/03 01:52:35;;;;;;;0.00;0.00;;;;;;;8.76;100.00;97550.84;5066035;28;20356;-43
2023/11/03 01:55:01;;;;;;;0.00;0.00;;;;;;;8.77;100.00;97531.84;5062384;28;20060;-42
2023/11/03 01:57:27;;;;;;;0.00;0.00;;;;;;;8.77;100.00;97537.22;5062769;28;20033;-43
2023/11/03 01:59:53;;;;;;;0.00;0.00;;;;;;;8.80;100.00;97543.94;5068849;28;20028;-44
2023/11/03 02:02:26;;;;;;;0.00;0.00;;;;;;;8.83;100.00;97542.63;5074636;28;20116;-43
2023/11/03 02:04:52;;;;;;;0.00;0.00;;;;;;;8.84;100.00;97550.41;5074734;28;20052;-44
2023/11/03 02:07:17;;;;;;;0.00;0.00;;;;;;;8.87;100.00;97549.09;5074465;28;20033;-44
2023/11/03 02:09:43;;;;;;;0.00;0.00;;;;;;;8.88;100.00;97540.81;5068418;28;20024;-44
2023/11/03 02:12:08;;;;;;;0.00;0.00;;;;;;;8.88;100.00;97548.06;5061361;28;20417;-43
2023/11/03 02:14:34;;;;;;;0.00;0.00;;;;;;;8.89;100.00;97550.47;5066122;28;20486;-41
2023/11/03 02:17:00;;;;;;;0.00;0.00;;;;;;;8.89;100.00;97545.09;5075936;28;20059;-40
2023/11/03 02:19:25;;;;;;;0.00;0.00;;;;;;;8.90;100.00;97554.78;5067993;28;20021;-42
2023/11/03 02:21:51;;;;;;;0.00;0.00;;;;;;;8.93;100.00;97551.59;5060426;28;20437;-41
2023/11/03 02:24:17;;;;;;;0.00;0.00;;;;;;;8.93;100.00;97545.44;5074698;28;20035;-41
2023/11/03 02:26:44;;;;;;;0.00;0.00;;;;;;;8.95;100.00;97560.19;5069743;28;20037;-44
2023/11/03 02:29:10;;;;;;;0.00;0.00;;;;;;;8.99;100.00;97555.94;5055948;28;20475;-43
2023/11/03 02:31:35;;;;;;;0.00;0.00;;;;;;;9.01;100.00;97569.91;5060078;28;20048;-41
2023/11/03 02:34:00;;;;;;;0.00;0.00;;;;;;;9.03;100.00;97583.09;5072585;28;20037;-41
2023/11/03 02:36:26;;;;;;;0.00;0.00;;;;;;;9.05;100.00;97580.13;5073904;28;20497;-40
2023/11/03 02:38:52;;;;;;;0.00;0.00;;;;;;;9.06;100.00;97576.38;5068735;28;20045;-40
2023/11/03 02:41:18;;;;;;;0.00;0.00;;;;;;;9.04;100.00;97584.69;5064159;28;20609;-40
2023/11/03 02:43:43;;;;;;;0.00;0.00;;;;;;;9.03;100.00;97593.81;5072311;28;20104;-39
2023/11/03 02:46:09;;;;;;;0.00;0.00;;;;;;;9.05;100.00;97613.13;5072983;28;20017;-40
2023/11/03 02:48:35;;;;;;;0.00;0.00;;;;;;;9.05;100.00;97601.59;5057681;28;20066;-39
2023/11/03 02:51:00;;;;;;;0.00;0.00;;;;;;;9.09;100.00;97592.00;5074550;28;20052;-43
2023/11/03 02:53:26;;;;;;;0.00;0.00;;;;;;;9.07;100.00;97594.13;5074224;28;20043;-40
2023/11/03 02:55:52;;;;;;;0.00;0.00;;;;;;;9.09;100.00;97589.31;5073814;28;20039;-45
2023/11/03 02:58:19;;;;;;;0.00;0.00;;;;;;;9.06;100.00;97592.47;5073537;28;20035;-44
2023/11/03 03:00:44;;;;;;;0.00;0.00;;;;;;;9.07;100.00;97604.84;5073855;28;20028;-44
2023/11/03 03:03:09;;;;;;;0.00;0.00;;;;;;;9.08;100.00;97603.78;5074343;28;20186;-43
2023/11/03 03:05:36;;;;;;;0.00;0.00;;;;;;;9.05;100.00;97613.13;5075152;28;20031;-43
2023/11/03 03:08:03;;;;;;;0.00;0.00;;;;;;;9.04;100.00;97613.41;5074308;28;20024;-43
2023/11/03 03:10:29;;;;;;;0.00;0.00;;;;;;;9.06;100.00;97617.44;5074664;28;20064;-44
2023/11/03 03:12:54;;;;;;;0.00;0.00;;;;;;;9.11;100.00;97616.69;5074376;28;20560;-43
2023/11/03 03:15:20;;;;;;;0.00;0.00;;;;;;;9.12;100.00;97618.31;5074802;28;20032;-44
2023/11/03 03:17:45;;;;;;;0.00;0.00;;;;;;;9.13;100.00;97623.41;5074038;28;20089;-43
2023/11/03 03:20:10;;;;;;;0.00;0.00;;;;;;;9.18;100.00;97622.66;5072942;28;20029;-42
2023/11/03 03:22:36;;;;;;;0.00;0.00;;;;;;;9.20;100.00;97620.53;5072100;28;20032;-43
2023/11/03 03:25:01;;;;;;;0.00;0.00;;;;;;;9.17;100.00;97623.75;5055051;28;20017;-42
2023/11/03 03:27:27;;;;;;;0.00;0.00;;;;;;;9.21;100.00;97638.25;5056113;28;20037;-43
2023/11/03 03:29:52;;;;;;;0.00;0.00;;;;;;;9.23;100.00;97625.41;5057008;28;20052;-42
2023/11/03 03:32:17;;;;;;;0.00;0.00;;;;;;;9.29;100.00;97628.94;5057353;28;20112;-40
2023/11/03 03:34:43;;;;;;;0.00;0.00;;;;;;;9.29;100.00;97639.69;5069320;28;20085;-40
2023/11/03 03:37:08;;;;;;;0.00;0.00;;;;;;;9.33;100.00;97644.31;5058703;28;20044;-42
2023/11/03 03:39:33;;;;;;;0.00;0.00;;;;;;;9.39;100.00;97637.91;5056620;28;20406;-44
2023/11/03 03:41:59;;;;;;;0.00;0.00;;;;;;;9.40;100.00;97631.50;5055467;28;20518;-45
2023/11/03 03:44:24;;;;;;;0.00;0.00;;;;;;;9.41;100.00;97637.69;5065724;28;20556;-43
2023/11/03 03:46:49;;;;;;;0.00;0.00;;;;;;;9.42;100.00;97639.28;5073176;28;20050;-44
2023/11/03 03:49:15;;;;;;;0.00;0.00;;;;;;;9.44;100.00;97648.72;5062805;28;20108;-42
2023/11/03 03:51:40;;;;;;;0.00;0.00;;;;;;;9.44;100.00;97662.13;5053647;28;20021;-46
2023/11/03 03:54:05;;;;;;;0.00;0.00;;;;;;;9.44;100.00;97675.53;5061509;28;20026;-41
2023/11/03 03:56:31;;;;;;;0.00;0.00;;;;;;;9.40;100.00;97669.06;5073576;28;20123;-42
2023/11/03 03:58:56;;;;;;;0.00;0.00;;;;;;;9.41;100.00;97667.19;5066075;28;20100;-43
2023/11/03 04:01:22;;;;;;;0.00;0.00;;;;;;;9.50;100.00;97679.09;5053948;28;20090;-44
2023/11/03 04:03:48;;;;;;;0.00;0.00;;;;;;;9.48;100.00;97665.13;5052306;28;20045;-43
2023/11/03 04:06:13;;;;;;;0.00;0.00;;;;;;;9.50;100.00;97680.97;5053013;28;20024;-44
2023/11/03 04:08:38;;;;;;;0.00;0.00;;;;;;;9.53;100.00;97689.34;5052778;28;20132;-42
2023/11/03 04:11:04;;;;;;;0.00;0.00;;;;;;;9.55;100.00;97678.34;5052872;28;20036;-45
2023/11/03 04:13:29;;;;;;;0.00;0.00;;;;;;;9.56;100.00;97701.47;5052651;28;20029;-44
2023/11/03 04:15:55;;;;;;;0.00;0.00;;;;;;;9.55;100.00;97702.50;5052473;28;20344;-41
2023/11/03 04:18:21;;;;;;;0.00;0.00;;;;;;;9.58;100.00;97696.63;5053685;28;20124;-43
2023/11/03 04:20:46;;;;;;;0.00;0.00;;;;;;;9.58;100.00;97702.00;5057173;28;20036;-42
2023/11/03 04:23:13;;;;;;;0.00;0.00;;;;;;;9.51;100.00;97706.78;5072179;28;20070;-43
2023/11/03 04:25:38;;;;;;;0.00;0.00;;;;;;;9.54;100.00;97704.38;5072401;28;20028;-43
2023/11/03 04:28:07;;;;;;;0.00;0.00;;;;;;;9.53;100.00;97710.84;5072079;28;20023;-45
2023/11/03 04:30:34;;;;;;;0.00;0.00;;;;;;;9.57;100.00;97717.31;5070699;28;20021;-43
2023/11/03 04:33:00;;;;;;;0.00;0.00;;;;;;;9.55;100.00;97726.66;5071705;28;20036;-44
2023/11/03 04:35:25;;;;;;;0.00;0.00;;;;;;;9.52;100.00;97735.22;5061879;28;20044;-42
2023/11/03 04:37:50;;;;;;;0.00;0.00;;;;;;;9.52;100.00;97727.97;5051987;28;20174;-44
2023/11/03 04:40:19;;;;;;;0.00;0.00;;;;;;;9.48;100.00;97724.19;5051868;28;20086;-43
2023/11/03 04:42:44;;;;;;;0.00;0.00;;;;;;;9.47;100.00;97743.22;5052133;28;20626;-41
2023/11/03 04:45:09;;;;;;;0.00;0.00;;;;;;;9.48;100.00;97745.66;5060727;28;20035;-42
2023/11/03 04:47:35;;;;;;;0.00;0.00;;;;;;;9.48;100.00;97755.56;5071913;28;20028;-45
2023/11/03 04:50:00;;;;;;;0.00;0.00;;;;;;;9.48;100.00;97750.19;5052596;28;20035;-42
2023/11/03 04:52:25;;;;;;;0.00;0.00;;;;;;;9.49;100.00;97741.09;5052264;28;20033;-42
2023/11/03 04:54:51;;;;;;;0.00;0.00;;;;;;;9.44;100.00;97745.34;5063494;28;20036;-44
2023/11/03 04:57:18;;;;;;;0.00;0.00;;;;;;;9.42;100.00;97743.97;5074575;28;20094;-42
2023/11/03 04:59:43;;;;;;;0.00;0.00;;;;;;;9.44;100.00;97745.34;5071634;28;20036;-43
2023/11/03 05:02:09;;;;;;;0.00;0.00;;;;;;;9.47;100.00;97751.28;5058357;28;20043;-45
2023/11/03 05:04:35;;;;;;;0.00;0.00;;;;;;;9.47;100.00;97764.69;5050600;28;20064;-45
2023/11/03 05:07:01;;;;;;;0.00;0.00;;;;;;;9.49;100.00;97773.31;5065583;28;20044;-44
2023/11/03 05:09:26;;;;;;;0.00;0.00;;;;;;;9.44;100.00;97772.19;5055840;28;20499;-44
2023/11/03 05:11:52;;;;;;;0.00;0.00;;;;;;;9.41;100.00;97778.06;5067157;28;20071;-40
2023/11/03 05:14:17;;;;;;;0.00;0.00;;;;;;;9.36;100.00;97756.50;5075296;28;20415;-42
2023/11/03 05:16:42;;;;;;;0.00;0.00;;;;;;;9.35;100.00;97762.16;5074498;28;20567;-43
2023/11/03 05:19:08;;;;;;;0.00;0.00;;;;;;;9.36;100.00;97764.56;5071421;28;20081;-44
2023/11/03 05:21:33;;;;;;;0.00;0.00;;;;;;;9.38;100.00;97775.88;5064492;28;20333;-42
2023/11/03 05:23:58;;;;;;;0.00;0.00;;;;;;;9.40;100.00;97765.72;5056609;28;20035;-43
2023/11/03 05:26:24;;;;;;;0.00;0.00;;;;;;;9.38;100.00;97778.56;5056923;28;20033;-43
2023/11/03 05:28:51;;;;;;;0.00;0.00;;;;;;;9.38;100.00;97783.13;5065580;28;20605;-42
2023/11/03 05:31:17;;;;;;;0.00;0.00;;;;;;;9.39;100.00;97790.09;5073011;28;20089;-44
2023/11/03 05:33:42;;;;;;;0.00;0.00;;;;;;;9.41;100.00;97796.84;5074058;28;20036;-43
2023/11/03 05:36:11;;;;;;;0.00;0.00;;;;;;;9.41;100.00;97799.53;5073993;28;20071;-43
2023/11/03 05:38:37;;;;;;;0.00;0.00;;;;;;;9.40;100.00;97805.13;5073990;28;20029;-44
2023/11/03 05:41:02;;;;;;;0.00;0.00;;;;;;;9.40;100.00;97818.56;5072054;28;20485;-44
2023/11/03 05:43:29;;;;;;;0.00;0.00;;;;;;;9.41;100.00;97815.63;5073650;28;20041;-44
2023/11/03 05:45:55;;;;;;;0.00;0.00;;;;;;;9.40;100.00;97830.13;5063478;28;20470;-42
2023/11/03 05:48:20;;;;;;;0.00;0.00;;;;;;;9.43;100.00;97829.63;5065334;28;20116;-42
2023/11/03 05:50:45;;;;;;;0.00;0.00;;;;;;;9.43;100.00;97840.38;5068350;28;20124;-42
2023/11/03 05:53:11;;;;;;;0.00;0.00;;;;;;;9.48;100.00;97830.72;5065408;28;20060;-40
2023/11/03 05:55:36;;;;;;;0.00;0.00;;;;;;;9.43;100.00;97840.38;5060771;28;20028;-39
2023/11/03 05:58:01;;;;;;;0.00;0.00;;;;;;;9.44;100.00;97846.53;5058519;28;20099;-39
2023/11/03 06:00:29;;;;;;;0.00;0.00;;;;;;;9.41;100.00;97857.78;5066947;28;20031;-39
2023/11/03 06:02:55;;;;;;;0.00;0.00;;;;;;;9.40;100.00;97854.28;5063851;28;20028;-39
2023/11/03 06:05:20;;;;;;;0.00;0.00;;;;;;;9.40;100.00;97854.28;5055471;28;20772;-40
2023/11/03 06:07:46;;;;;;;0.00;0.00;;;;;;;9.39;100.00;97871.44;5065809;28;20037;-39
2023/11/03 06:10:13;;;;;;;0.00;0.00;;;;;;;9.37;100.00;97870.06;5067669;28;20040;-41
2023/11/03 06:12:40;;;;;;;0.00;0.00;;;;;;;9.40;100.00;97873.06;5065739;28;20116;-41
2023/11/03 06:15:06;;;;;;;0.00;0.00;;;;;;;9.39;100.00;97892.09;5059228;28;20036;-41
2023/11/03 06:17:31;;;;;;;0.00;0.00;;;;;;;9.35;100.00;97886.41;5059531;28;20447;-43
2023/11/03 06:19:56;;;;;;;0.00;0.00;;;;;;;9.35;100.00;97897.16;5068474;28;20025;-43
2023/11/03 06:22:22;;;;;;;0.00;0.00;;;;;;;9.34;100.00;97900.88;5055166;28;20363;-43
2023/11/03 06:24:47;;;;;;;0.00;0.00;;;;;;;9.34;100.00;97914.28;5060909;28;20341;-43
2023/11/03 06:27:13;;;;;;;0.00;0.00;;;;;;;9.31;100.00;97912.09;5073647;28;20029;-44
2023/11/03 06:29:39;;;;;;;0.00;0.00;;;;;;;9.29;100.00;97903.47;5060650;28;20107;-44
2023/11/03 06:32:05;;;;;;;0.00;0.00;;;;;;;9.25;100.00;97913.09;5066741;28;20048;-43
2023/11/03 06:34:30;;;;;;;0.00;0.00;;;;;;;9.28;100.00;97917.97;5063987;28;20024;-43
2023/11/03 06:36:56;;;;;;;0.00;0.00;;;;;;;9.27;100.00;97919.03;5058586;28;20099;-41
2023/11/03 06:39:23;;;;;;;0.00;0.00;;;;;;;9.27;100.00;97924.41;5065346;28;20071;-42
2023/11/03 06:41:48;;;;;;;0.00;0.00;;;;;;;9.23;100.00;97940.16;5061174;28;20471;-43
2023/11/03 06:44:14;;;;;;;0.00;0.00;;;;;;;9.25;100.00;97934.56;5069313;28;20026;-43
2023/11/03 06:46:39;;;;;;;0.00;0.00;;;;;;;9.26;100.00;97952.28;5071631;28;20039;-43
2023/11/03 06:49:06;;;;;;;0.00;0.00;;;;;;;9.30;100.00;97952.63;5066518;28;20320;-43
2023/11/03 06:51:32;;;;;;;0.00;0.00;;;;;;;9.33;100.00;97957.50;5070674;28;20111;-43
2023/11/03 06:53:57;;;;;;;0.00;0.00;;;;;;;9.33;100.00;97969.03;5073833;28;20032;-43
2023/11/03 06:56:22;;;;;;;0.00;0.00;;;;;;;9.33;100.00;97969.03;5067091;28;20036;-45
2023/11/03 06:58:48;;;;;;;0.00;0.00;;;;;;;9.36;100.00;97979.28;5073080;28;20115;-44
2023/11/03 07:01:13;;;;;;;0.00;0.00;;;;;;;9.31;100.00;97991.81;5065809;28;20024;-42
2023/11/03 07:03:38;;;;;;;0.00;0.00;;;;;;;9.26;100.00;97984.50;5071392;28;20048;-43
2023/11/03 07:06:05;;;;;;;0.00;0.00;;;;;;;9.25;100.00;97988.25;5063193;28;20056;-43
2023/11/03 07:08:30;;;;;;;0.00;0.00;;;;;;;9.24;100.00;97989.28;5056831;28;20136;-43
2023/11/03 07:10:58;;;;;;;0.00;0.00;;;;;;;9.17;100.00;97980.59;5062612;28;20551;-43
2023/11/03 07:13:24;;;;;;;;;;;;;;;9.22;100.00;97994.09;5073795;28;20060;-42
2023/11/03 07:15:49;;;;;;;0.00;0.00;;;;;;;9.19;100.00;97989.22;5057116;28;19920;-42
2023/11/03 07:18:14;;;;;;;0.00;0.00;;;;;;;9.18;100.00;97979.53;5056474;28;20037;-44
2023/11/03 07:20:40;;;;;;;0.00;0.00;;;;;;;9.23;100.00;97993.03;5064629;28;20043;-43
2023/11/03 07:23:07;;;;;;;0.00;0.00;;;;;;;9.32;100.00;97988.91;5068390;28;20518;-44
2023/11/03 07:25:32;;;;;;;0.00;0.00;;;;;;;9.40;100.00;98001.91;5071747;28;20028;-42
2023/11/03 07:27:57;;;;;;;0.00;0.00;;;;;;;9.43;100.00;97992.56;5070740;28;20020;-45
2023/11/03 07:30:23;;;;;;;0.00;0.00;;;;;;;9.47;100.00;97996.38;5072642;28;20028;-43
2023/11/03 07:32:48;;;;;;;0.00;0.00;;;;;;;9.49;100.00;97991.56;5071691;28;20052;-43
2023/11/03 07:35:14;;;;;;;0.00;0.00;;;;;;;9.50;100.00;97995.88;5058330;28;20056;-45
2023/11/03 07:37:40;;;;;;;0.00;0.00;;;;;;;9.50;100.00;98000.44;5054006;28;20025;-46
2023/11/03 07:40:06;;;;;;;0.00;0.00;;;;;;;9.54;100.00;98002.41;5056011;28;20056;-43
2023/11/03 07:42:31;;;;;;;0.00;0.00;;;;;;;9.55;100.00;98022.00;5052501;28;20110;-43
2023/11/03 07:44:57;;;;;;;0.00;0.00;;;;;;;9.54;100.00;98023.06;5056399;28;20393;-43
2023/11/03 07:47:22;;;;;;;0.00;0.00;;;;;;;9.51;100.00;98028.94;5065070;28;20128;-44
2023/11/03 07:49:49;;;;;;;0.00;0.00;;;;;;;9.50;100.00;98024.59;5052633;28;20083;-44
2023/11/03 07:52:15;;;;;;;0.00;0.00;;;;;;;9.49;100.00;98036.41;5062538;28;20027;-45
2023/11/03 07:54:40;;;;;;;0.00;0.00;;;;;;;9.49;100.00;98039.09;5056848;28;20025;-44
2023/11/03 07:57:06;;;;;;;0.00;0.00;;;;;;;9.53;100.00;98034.84;5059107;28;20386;-43
2023/11/03 07:59:32;;;;;;;0.00;0.00;;;;;;;9.53;100.00;98043.75;5054590;28;20453;-44
2023/11/03 08:01:57;;;;;;;0.00;0.00;;;;;;;9.54;100.00;98042.66;5060817;28;20550;-42
2023/11/03 08:04:22;;;;;;;0.00;0.00;;;;;;;9.57;100.00;98044.06;5062454;28;20052;-42
2023/11/03 08:06:49;;;;;;;0.00;0.00;;;;;;;9.66;100.00;98058.69;5063094;28;20390;-41
2023/11/03 08:09:14;;;;;;;0.00;0.00;;;;;;;9.73;100.00;98051.28;5065234;28;20059;-41
2023/11/03 08:11:40;;;;;;;0.00;0.00;;;;;;;9.81;100.00;98036.63;5063139;28;20101;-41
2023/11/03 08:14:06;;;;;;;0.00;0.00;;;;;;;9.90;100.00;98043.22;5066224;28;20462;-40
2023/11/03 08:16:31;;;;;;;0.00;0.00;;;;;;;9.97;100.00;98051.91;5064895;28;20115;-40
2023/11/03 08:18:58;;;;;;;0.00;0.00;;;;;;;10.04;100.00;98065.19;5064887;28;20056;-41
2023/11/03 08:21:24;;;;;;;0.00;0.00;;;;;;;10.07;100.00;98059.31;5064800;28;20033;-38
2023/11/03 08:23:49;;;;;;;0.00;0.00;;;;;;;10.01;100.00;98054.94;5066533;28;20115;-39
2023/11/03 08:26:18;;;;;;;0.00;0.00;;;;;;;9.98;100.00;98066.16;5064947;28;20084;-40
2023/11/03 08:28:45;;;;;;;0.00;0.00;;;;;;;9.91;100.00;98060.16;5061178;28;20036;-41
2023/11/03 08:31:11;;;;;;;0.00;0.00;;;;;;;9.84;100.00;98066.50;5063429;28;20028;-41
2023/11/03 08:33:37;;;;;;;0.00;0.00;;;;;;;9.83;100.00;98077.50;5068790;28;20542;-44
2023/11/03 08:36:02;;;;;;;0.00;0.00;;;;;;;9.74;100.00;98087.84;5063681;28;20360;-42
2023/11/03 08:38:28;;;;;;;0.00;0.00;;;;;;;9.77;100.00;98076.63;5066587;28;20387;-45
2023/11/03 08:40:54;;;;;;;0.00;0.00;;;;;;;9.79;100.00;98085.22;5056292;28;20025;-43
2023/11/03 08:43:20;;;;;;;0.00;0.00;;;;;;;9.78;100.00;98093.53;5066208;28;20074;-43
2023/11/03 08:45:46;;;;;;;0.00;0.00;;;;;;;9.81;100.00;98106.47;5065628;28;20028;-42
2023/11/03 08:48:12;;;;;;;0.00;0.00;;;;;;;9.82;100.00;98100.88;5062379;28;20430;-41
2023/11/03 08:50:38;;;;;;;0.00;0.00;;;;;;;9.93;100.00;98111.78;5071218;28;20106;-39
2023/11/03 08:53:05;;;;;;;0.00;0.00;;;;;;;9.97;100.00;98102.97;5075488;28;20032;-39
2023/11/03 08:55:30;;;;;;;0.00;0.00;;;;;;;10.02;100.00;98108.41;5059351;28;20025;-39
2023/11/03 08:57:57;;;;;;;0.00;0.00;;;;;;;10.04;100.00;98111.69;5055095;28;20044;-39
2023/11/03 09:00:23;;;;;;;0.00;0.00;;;;;;;10.13;100.00;98108.56;5063895;28;20079;-40
2023/11/03 09:02:50;;;;;;;0.00;0.00;;;;;;;10.17;100.00;98115.91;5056726;28;20037;-39
2023/11/03 09:05:16;;;;;;;;;;;;;;;10.23;100.00;98108.72;5074464;28;20125;-40
2023/11/03 09:07:44;;;;;;;0.00;0.00;;;;;;;10.17;100.00;98128.53;5063193;28;20360;-38
2023/11/03 09:10:10;;;;;;;0.00;0.00;;;;;;;10.17;100.00;98128.53;5059379;28;20111;-37
2023/11/03 09:12:37;;;;;;;0.00;0.00;;;;;;;10.10;100.00;98134.88;5059981;28;20036;-38
2023/11/03 09:15:03;;;;;;;0.00;0.00;;;;;;;10.10;100.00;98137.56;5069459;28;20028;-40
2023/11/03 09:17:31;;;;;;;0.00;0.00;;;;;;;10.09;100.00;98135.94;5070345;28;20289;-37
2023/11/03 09:19:58;;;;;;;0.00;0.00;;;;;;;9.98;100.00;98136.84;5074776;28;20032;-40
2023/11/03 09:22:24;;;;;;;0.00;0.00;;;;;;;9.99;100.00;98143.84;5078565;28;20028;-40
2023/11/03 09:24:53;;;;;;;0.00;0.00;;;;;;;9.89;100.00;98149.84;5080479;28;20035;-38
2023/11/03 09:27:19;;;;;;;0.00;0.00;;;;;;;9.76;100.00;98155.53;5081827;28;20389;-39
2023/11/03 09:29:46;;;;;;;0.00;0.00;;;;;;;9.77;100.00;98162.56;5081230;28;20048;-39
2023/11/03 09:32:12;;;;;;;0.00;0.00;;;;;;;9.75;100.00;98164.66;5077585;28;20290;-39
2023/11/03 09:34:37;;;;;;;0.00;0.00;;;;;;;9.65;100.00;98156.44;5070678;28;20024;-43
2023/11/03 09:37:03;;;;;;;0.00;0.00;;;;;;;9.48;100.00;98177.88;5070565;28;20432;-44
2023/11/03 09:39:30;;;;;;;0.00;0.00;;;;;;;9.44;100.00;98190.94;5070068;28;20037;-42
2023/11/03 09:42:05;;;;;;;0.00;0.00;;;;;;;9.41;100.00;98194.13;5070201;28;20029;-43
2023/11/03 09:44:32;;;;;;;0.00;0.00;;;;;;;9.36;100.00;98193.22;5069568;28;20385;-43
2023/11/03 09:47:02;;;;;;;0.00;0.00;;;;;;;9.34;100.00;98190.75;5070595;28;20043;-40
2023/11/03 09:49:28;;;;;;;0.00;0.00;;;;;;;9.35;100.00;98194.28;5070529;28;20081;-42
2023/11/03 09:52:02;;;;;;;0.00;0.00;;;;;;;9.32;100.00;98198.25;5070204;28;20183;-40
2023/11/03 09:54:32;;;;;;;0.00;0.00;;;;;;;9.37;100.00;98198.34;5069972;28;20025;-42
2023/11/03 09:56:59;;;;;;;0.00;0.00;;;;;;;9.38;100.00;98199.16;5068513;28;20336;-40
2023/11/03 09:59:25;;;;;;;0.00;0.00;;;;;;;9.38;100.00;98197.28;5069035;28;20020;-41
2023/11/03 10:01:51;;;;;;;0.00;0.00;;;;;;;9.35;100.00;98200.44;5069984;28;20033;-41
2023/11/03 10:04:16;;;;;;;0.00;0.00;;;;;;;9.33;100.00;98189.13;5070397;28;20131;-41
2023/11/03 10:06:41;;;;;;;0.00;0.00;;;;;;;9.28;100.00;98191.72;5070471;28;20491;-39
2023/11/03 10:09:07;;;;;;;0.00;0.00;;;;;;;9.27;100.00;98198.16;5074473;28;20182;-40
2023/11/03 10:11:32;;;;;;;0.00;0.00;;;;;;;9.32;100.00;98206.31;5073996;28;20089;-39
2023/11/03 10:13:57;;;;;;;0.00;0.00;;;;;;;9.30;100.00;98205.72;5074425;28;20486;-40
2023/11/03 10:16:23;;;;;;;0.00;0.00;;;;;;;9.31;100.00;98204.66;5074077;28;20027;-40
2023/11/03 10:18:48;;;;;;;0.00;0.00;;;;;;;9.40;100.00;98197.03;5074221;28;20017;-39
2023/11/03 10:21:14;;;;;;;0.00;0.00;;;;;;;9.54;100.00;98201.06;5072416;28;20501;-38
2023/11/03 10:23:39;;;;;;;0.00;0.00;;;;;;;9.66;100.00;98204.53;5073975;28;20076;-39
2023/11/03 10:26:05;;;;;;;0.00;0.00;;;;;;;9.73;100.00;98212.44;5074266;28;20025;-40
2023/11/03 10:28:32;;;;;;;0.00;0.00;;;;;;;9.68;100.00;98190.84;5074201;28;20028;-39
2023/11/03 10:30:58;;;;;;;0.00;0.00;;;;;;;9.76;100.00;98203.88;5073943;28;20112;-40
2023/11/03 10:33:24;;;;;;;0.00;0.00;;;;;;;9.83;100.00;98188.44;5074173;28;20032;-39
2023/11/03 10:35:51;;;;;;;0.00;0.00;;;;;;;9.99;100.00;98186.03;5074446;28;20047;-40
2023/11/03 10:38:18;;;;;;;0.00;0.00;;;;;;;10.09;100.00;98191.56;5074408;28;20116;-40
2023/11/03 10:40:44;;;;;;;0.00;0.00;;;;;;;9.99;100.00;98191.41;5074754;28;20173;-38
2023/11/03 10:43:13;;;;;;;0.00;0.00;;;;;;;10.15;100.00;98189.78;5074104;28;20029;-39
2023/11/03 10:45:40;;;;;;;0.00;0.00;;;;;;;10.15;100.00;98185.22;5074686;28;20081;-38
2023/11/03 10:48:11;;;;;;;0.00;0.00;;;;;;;10.21;100.00;98188.78;5073438;28;20032;-40
2023/11/03 10:50:45;;;;;;;0.00;0.00;;;;;;;10.24;100.00;98177.53;5074450;28;20025;-39
2023/11/03 10:53:28;;;;;;;0.00;0.00;;;;;;;10.31;100.00;98184.41;5074815;28;20052;-39
2023/11/03 10:56:07;;;;;;;0.00;0.00;;;;;;;10.39;100.00;98191.25;5076958;28;20499;-40
2023/11/03 10:58:33;;;;;;;0.00;0.00;;;;;;;10.49;100.00;98193.28;5082207;28;20047;-39
2023/11/03 11:01:03;;;;;;;0.00;0.00;;;;;;;10.52;100.00;98195.47;5080474;28;20032;-40
2023/11/03 11:03:49;;;;;;;0.00;0.00;;;;;;;10.51;100.00;98199.25;5077061;28;20186;-39
2023/11/03 11:06:26;;;;;;;0.00;0.00;;;;;;;10.64;100.00;98203.47;5074210;28;20115;-38
2023/11/03 11:08:57;;;;;;;0.00;0.00;;;;;;;10.46;100.00;98196.47;5073716;28;20028;-40
2023/11/03 11:11:26;;;;;;;0.00;0.00;;;;;;;10.44;100.00;98193.22;5072140;28;20032;-38
2023/11/03 11:13:52;;;;;;;0.00;0.00;;;;;;;10.45;100.00;98200.22;5073739;28;20104;-40
2023/11/03 11:16:17;;;;;;;0.00;0.00;;;;;;;10.42;100.00;98198.81;5072506;28;20159;-39
2023/11/03 11:18:46;;;;;;;0.00;0.00;;;;;;;10.48;100.00;98210.50;5072584;28;20382;-40
2023/11/03 11:21:14;;;;;;;0.00;0.00;;;;;;;10.47;100.00;98201.59;5073838;28;20123;-40
2023/11/03 11:23:44;;;;;;;0.00;0.00;;;;;;;10.55;100.00;98200.38;5073740;28;20111;-39
2023/11/03 11:26:16;;;;;;;0.00;0.00;;;;;;;10.72;100.00;98193.09;5077294;28;20039;-39
2023/11/03 11:28:43;;;;;;;0.00;0.00;;;;;;;10.76;100.00;98213.03;5079327;28;20374;-39